Time;durP1;ratioP1;P1;durP2;ratioP2;P2;SDS_P1;SDS_P2;PMS_P1;PMS_P2;Temp;Humidity;BMP_temperature;BMP_pressure;BME280_temperature;BME280_humidity;BME280_pressure;Samples;Min_cycle;Max_cycle;Signal;HPM_P1;HPM_P2
2023/05/07 00:00:15;;;;;;;20.92;13.77;;;;;;;13.77;100.00;101504.75;5071269;28;20073;-54
2023/05/07 00:02:40;;;;;;;18.70;13.52;;;;;;;13.80;100.00;101500.53;5072666;28;20032;-53
2023/05/07 00:05:07;;;;;;;19.20;13.18;;;;;;;13.79;100.00;101488.56;5072290;28;20112;-53
2023/05/07 00:07:32;;;;;;;21.00;14.20;;;;;;;13.85;100.00;101497.63;5071266;28;20105;-53
2023/05/07 00:09:57;;;;;;;19.50;13.57;;;;;;;13.81;100.00;101502.19;5071001;28;20070;-53
2023/05/07 00:12:23;;;;;;;21.25;14.23;;;;;;;13.81;100.00;101488.28;5072341;28;20064;-54
2023/05/07 00:14:48;;;;;;;21.15;14.43;;;;;;;13.79;100.00;101496.91;5072407;28;20025;-52
2023/05/07 00:17:13;;;;;;;20.80;14.73;;;;;;;13.77;100.00;101493.63;5072218;28;20047;-54
2023/05/07 00:19:39;;;;;;;20.25;14.50;;;;;;;13.80;100.00;101495.78;5072112;28;20037;-57
2023/05/07 00:22:04;;;;;;;20.73;13.60;;;;;;;13.81;100.00;101493.84;5072145;28;20031;-53
2023/05/07 00:24:29;;;;;;;20.80;14.32;;;;;;;13.82;100.00;101487.94;5072268;28;20035;-52
2023/05/07 00:26:55;;;;;;;21.58;14.90;;;;;;;13.83;100.00;101484.03;5072174;28;20114;-54
2023/05/07 00:29:20;;;;;;;21.15;15.27;;;;;;;13.78;100.00;101483.31;5072000;28;20056;-53
2023/05/07 00:31:45;;;;;;;20.05;14.73;;;;;;;13.78;100.00;101477.75;5072164;28;20442;-54
2023/05/07 00:34:10;;;;;;;19.80;15.07;;;;;;;13.79;100.00;101485.78;5070751;28;20032;-53
2023/05/07 00:36:36;;;;;;;20.52;14.75;;;;;;;13.76;100.00;101486.44;5072028;28;20539;-53
2023/05/07 00:39:03;;;;;;;20.65;15.32;;;;;;;13.78;100.00;101481.38;5071795;28;20025;-52
2023/05/07 00:41:30;;;;;;;20.73;15.15;;;;;;;13.77;100.00;101474.19;5071532;28;20113;-54
2023/05/07 00:43:55;;;;;;;20.52;14.93;;;;;;;13.74;100.00;101463.66;5071599;28;20109;-54
2023/05/07 00:46:21;;;;;;;21.27;15.65;;;;;;;13.72;100.00;101474.28;5071437;28;20119;-54
2023/05/07 00:48:47;;;;;;;22.48;15.77;;;;;;;13.71;100.00;101475.41;5071541;28;20037;-53
2023/05/07 00:51:13;;;;;;;20.95;15.38;;;;;;;13.72;100.00;101472.34;5071369;28;20062;-54
2023/05/07 00:53:38;;;;;;;20.92;15.23;;;;;;;13.70;100.00;101469.03;5071248;28;20020;-54
2023/05/07 00:56:06;;;;;;;22.25;15.65;;;;;;;13.67;100.00;101471.63;5071334;28;20480;-54
2023/05/07 00:58:32;;;;;;;21.42;15.82;;;;;;;13.62;100.00;101472.56;5071614;28;20031;-54
2023/05/07 01:00:57;;;;;;;22.42;16.02;;;;;;;13.61;100.00;101465.34;5071402;28;20352;-53
2023/05/07 01:03:23;;;;;;;21.98;16.58;;;;;;;13.53;100.00;101460.53;5071496;28;20036;-53
2023/05/07 01:05:50;;;;;;;22.02;16.63;;;;;;;13.52;100.00;101467.22;5071304;28;20371;-50
2023/05/07 01:08:17;;;;;;;21.27;16.10;;;;;;;13.54;100.00;101462.97;5071441;28;20056;-53
2023/05/07 01:10:44;;;;;;;22.33;16.85;;;;;;;13.53;100.00;101460.53;5071194;28;20054;-52
2023/05/07 01:13:10;;;;;;;22.70;16.98;;;;;;;13.55;100.00;101461.84;5071275;28;20032;-53
2023/05/07 01:15:36;;;;;;;22.75;16.73;;;;;;;13.57;100.00;101458.75;5071361;28;20086;-53
2023/05/07 01:18:01;;;;;;;25.00;17.60;;;;;;;13.57;100.00;101464.31;5070691;28;20101;-54
2023/05/07 01:20:28;;;;;;;23.08;17.40;;;;;;;13.62;100.00;101464.22;5070893;28;20033;-53
2023/05/07 01:22:54;;;;;;;23.27;17.58;;;;;;;13.62;100.00;101463.38;5070970;28;20119;-53
2023/05/07 01:25:19;;;;;;;24.98;17.90;;;;;;;13.64;100.00;101464.72;5070919;28;20469;-53
2023/05/07 01:27:45;;;;;;;23.30;17.75;;;;;;;13.64;100.00;101455.56;5070926;28;20028;-52
2023/05/07 01:30:12;;;;;;;24.92;18.23;;;;;;;13.66;100.00;101461.63;5070870;28;20072;-53
2023/05/07 01:32:45;;;;;;;25.25;18.80;;;;;;;13.63;100.00;101456.69;5070750;28;20488;-53
2023/05/07 01:35:13;;;;;;;24.92;18.55;;;;;;;13.65;100.00;101455.22;5069371;28;20127;-53
2023/05/07 01:37:39;;;;;;;24.75;18.77;;;;;;;13.63;100.00;101453.91;5070696;28;20050;-53
2023/05/07 01:40:07;;;;;;;24.00;18.52;;;;;;;13.53;100.00;101441.06;5070753;28;20498;-53
2023/05/07 01:42:32;;;;;;;24.77;18.63;;;;;;;13.58;100.00;101443.72;5070742;28;20016;-52
2023/05/07 01:44:58;;;;;;;23.67;18.73;;;;;;;13.58;100.00;101435.38;5070813;28;20035;-53
2023/05/07 01:47:24;;;;;;;24.70;18.88;;;;;;;13.54;100.00;101442.72;5069344;28;20024;-54
2023/05/07 01:49:50;;;;;;;24.90;19.40;;;;;;;13.54;100.00;101442.72;5070851;28;20384;-53
2023/05/07 01:52:15;;;;;;;24.05;19.30;;;;;;;13.53;100.00;101433.53;5069472;28;20029;-53
2023/05/07 01:54:41;;;;;;;24.67;19.75;;;;;;;13.51;100.00;101437.78;5070845;28;20116;-53
2023/05/07 01:57:06;;;;;;;23.48;18.95;;;;;;;13.52;100.00;101434.66;5070718;28;20024;-52
2023/05/07 01:59:32;;;;;;;25.08;20.05;;;;;;;13.49;100.00;101437.25;5069167;28;20025;-53
2023/05/07 02:01:57;;;;;;;26.15;20.15;;;;;;;13.48;100.00;101435.59;5070725;28;20036;-53
2023/05/07 02:04:22;;;;;;;25.63;20.25;;;;;;;13.48;100.00;101433.66;5070749;28;20391;-52
2023/05/07 02:06:48;;;;;;;24.85;19.88;;;;;;;13.49;100.00;101440.88;5069157;28;20044;-54
2023/05/07 02:09:14;;;;;;;24.13;19.90;;;;;;;13.51;100.00;101444.13;5070733;28;20040;-54
2023/05/07 02:11:40;;;;;;;25.38;20.33;;;;;;;13.50;100.00;101441.69;5071019;28;20021;-54
2023/05/07 02:14:05;;;;;;;25.50;20.55;;;;;;;13.47;100.00;101439.50;5070816;28;20024;-53
2023/05/07 02:16:30;;;;;;;27.08;21.30;;;;;;;13.45;100.00;101427.91;5070478;28;20024;-53
2023/05/07 02:18:56;;;;;;;26.77;22.30;;;;;;;13.41;100.00;101430.50;5070653;28;20027;-53
2023/05/07 02:21:21;;;;;;;28.80;22.55;;;;;;;13.37;100.00;101432.19;5070526;28;20054;-52
2023/05/07 02:23:47;;;;;;;28.23;23.00;;;;;;;13.35;100.00;101432.53;5069188;28;20681;-54
2023/05/07 02:26:12;;;;;;;29.25;23.10;;;;;;;13.35;100.00;101431.69;5070795;28;20143;-53
2023/05/07 02:28:37;;;;;;;27.13;22.08;;;;;;;13.34;100.00;101433.66;5070864;28;20689;-54
2023/05/07 02:31:03;;;;;;;27.77;23.08;;;;;;;13.33;100.00;101431.16;5074264;28;20051;-54
2023/05/07 02:33:29;;;;;;;27.50;22.90;;;;;;;13.32;100.00;101430.34;5074282;28;20048;-53
2023/05/07 02:35:55;;;;;;;27.25;22.45;;;;;;;13.30;100.00;101427.06;5074202;28;20094;-53
2023/05/07 02:38:20;;;;;;;28.98;22.73;;;;;;;13.32;100.00;101433.13;5074007;28;20024;-54
2023/05/07 02:40:45;;;;;;;28.45;23.48;;;;;;;13.36;100.00;101438.91;5074090;28;20043;-53
2023/05/07 02:43:11;;;;;;;27.80;22.88;;;;;;;13.38;100.00;101434.66;5074059;28;20043;-54
2023/05/07 02:45:37;;;;;;;28.30;23.65;;;;;;;13.39;100.00;101432.75;5072544;28;20396;-54
2023/05/07 02:48:03;;;;;;;28.35;24.05;;;;;;;13.39;100.00;101436.34;5073881;28;20108;-54
2023/05/07 02:50:29;;;;;;;29.33;23.73;;;;;;;13.38;100.00;101440.22;5073819;28;20032;-54
2023/05/07 02:52:55;;;;;;;27.77;23.55;;;;;;;13.40;100.00;101439.97;5073933;28;20114;-54
2023/05/07 02:55:20;;;;;;;29.02;23.92;;;;;;;13.38;100.00;101436.63;5073736;28;20044;-53
2023/05/07 02:57:45;;;;;;;27.88;24.13;;;;;;;13.35;100.00;101440.88;5073527;28;20063;-49
2023/05/07 03:00:16;;;;;;;28.73;23.83;;;;;;;13.34;100.00;101432.81;5073568;28;20103;-52
2023/05/07 03:02:41;;;;;;;30.48;24.00;;;;;;;13.36;100.00;101438.91;5073692;28;20353;-54
2023/05/07 03:05:07;;;;;;;29.13;24.15;;;;;;;13.33;100.00;101436.72;5073475;28;20020;-54
2023/05/07 03:07:32;;;;;;;27.83;22.65;;;;;;;13.36;100.00;101441.66;5073560;28;20510;-53
2023/05/07 03:09:57;;;;;;;28.00;23.20;;;;;;;13.34;100.00;101441.16;5073360;28;20112;-52
2023/05/07 03:12:23;;;;;;;29.13;23.27;;;;;;;13.35;100.00;101445.59;5073334;28;20481;-50
2023/05/07 03:14:48;;;;;;;29.50;23.92;;;;;;;13.37;100.00;101437.75;5073337;28;20032;-53
2023/05/07 03:17:15;;;;;;;28.15;24.17;;;;;;;13.38;100.00;101437.44;5071824;28;20078;-54
2023/05/07 03:19:41;;;;;;;28.10;23.83;;;;;;;13.37;100.00;101438.56;5071628;28;20028;-55
2023/05/07 03:22:06;;;;;;;29.45;24.13;;;;;;;13.35;100.00;101437.25;5073140;28;20051;-52
2023/05/07 03:24:31;;;;;;;29.10;24.13;;;;;;;13.34;100.00;101439.22;5071558;28;20071;-52
2023/05/07 03:26:57;;;;;;;28.95;23.80;;;;;;;13.33;100.00;101432.00;5072914;28;20047;-54
2023/05/07 03:29:22;;;;;;;29.20;23.92;;;;;;;13.29;100.00;101436.53;5072744;28;20127;-53
2023/05/07 03:31:48;;;;;;;28.83;24.90;;;;;;;13.30;100.00;101431.81;5072863;28;20032;-50
2023/05/07 03:34:16;;;;;;;30.23;25.02;;;;;;;13.30;100.00;101437.38;5071515;28;20067;-53
2023/05/07 03:36:42;;;;;;;30.13;24.60;;;;;;;13.26;100.00;101426.88;5073126;28;20551;-54
2023/05/07 03:39:07;;;;;;;28.80;24.92;;;;;;;13.24;100.00;101428.31;5072391;28;20146;-54
2023/05/07 03:41:33;;;;;;;29.50;24.98;;;;;;;13.21;100.00;101428.91;5072493;28;20024;-54
2023/05/07 03:43:58;;;;;;;27.95;24.58;;;;;;;13.18;100.00;101423.97;5072621;28;20036;-53
2023/05/07 03:46:25;;;;;;;31.00;25.08;;;;;;;13.17;100.00;101423.16;5072610;28;20055;-52
2023/05/07 03:48:51;;;;;;;30.38;24.90;;;;;;;13.16;100.00;101420.72;5072469;28;20021;-53
2023/05/07 03:51:16;;;;;;;29.25;25.20;;;;;;;13.20;100.00;101419.78;5072466;28;20038;-54
2023/05/07 03:53:41;;;;;;;29.55;25.52;;;;;;;13.21;100.00;101421.44;5072424;28;20491;-53
2023/05/07 03:56:07;;;;;;;29.15;25.23;;;;;;;13.22;100.00;101423.06;5072167;28;20052;-52
2023/05/07 03:58:32;;;;;;;28.92;25.38;;;;;;;13.24;100.00;101425.53;5072350;28;20628;-54
2023/05/07 04:00:57;;;;;;;29.85;26.58;;;;;;;13.23;100.00;101432.22;5072184;28;20032;-53
2023/05/07 04:03:23;;;;;;;33.60;26.52;;;;;;;13.21;100.00;101432.53;5072110;28;20436;-54
2023/05/07 04:05:48;;;;;;;31.58;26.50;;;;;;;13.21;100.00;101440.03;5071835;28;20078;-53
2023/05/07 04:08:13;;;;;;;30.77;26.95;;;;;;;13.21;100.00;101446.44;5072013;28;20029;-52
2023/05/07 04:10:38;;;;;;;29.23;26.02;;;;;;;13.18;100.00;101451.75;5071998;28;20891;-53
2023/05/07 04:13:04;;;;;;;30.80;27.08;;;;;;;13.18;100.00;101452.59;5070679;28;20895;-53
2023/05/07 04:15:29;;;;;;;31.40;25.67;;;;;;;13.19;100.00;101448.69;5072113;28;20468;-52
2023/05/07 04:17:55;;;;;;;32.33;27.23;;;;;;;13.18;100.00;101448.97;5072032;28;20425;-50
2023/05/07 04:20:20;;;;;;;30.73;26.65;;;;;;;13.19;100.00;101457.03;5072187;28;20024;-52
2023/05/07 04:22:45;;;;;;;31.13;27.15;;;;;;;13.18;100.00;101458.16;5072305;28;20106;-53
2023/05/07 04:25:10;;;;;;;32.92;27.35;;;;;;;13.17;100.00;101456.50;5072136;28;20020;-49
2023/05/07 04:27:36;;;;;;;31.83;27.60;;;;;;;13.17;100.00;101455.69;5071895;28;20059;-53
2023/05/07 04:30:02;;;;;;;31.40;26.83;;;;;;;13.17;100.00;101452.91;5071760;28;20041;-53
2023/05/07 04:32:29;;;;;;;33.22;28.75;;;;;;;13.18;100.00;101449.81;5071960;28;20041;-52
2023/05/07 04:34:55;;;;;;;32.53;28.42;;;;;;;13.17;100.00;101448.16;5070591;28;20060;-53
2023/05/07 04:37:20;;;;;;;33.92;28.38;;;;;;;13.17;100.00;101450.13;5071967;28;20208;-52
2023/05/07 04:39:46;;;;;;;35.42;30.38;;;;;;;13.18;100.00;101447.03;5071811;28;20609;-54
2023/05/07 04:42:17;;;;;;;33.00;28.40;;;;;;;13.19;100.00;101445.91;5071841;28;20028;-53
2023/05/07 04:44:44;;;;;;;33.15;28.80;;;;;;;13.20;100.00;101455.91;5071746;28;20111;-53
2023/05/07 04:47:10;;;;;;;34.45;29.50;;;;;;;13.23;100.00;101454.44;5071467;28;20027;-53
2023/05/07 04:49:36;;;;;;;35.03;29.13;;;;;;;13.26;100.00;101460.19;5071807;28;20033;-52
2023/05/07 04:52:01;;;;;;;33.97;29.38;;;;;;;13.27;100.00;101464.63;5069492;28;20021;-53
2023/05/07 04:54:26;;;;;;;34.35;29.50;;;;;;;13.31;100.00;101464.84;5071559;28;20040;-54
2023/05/07 04:56:52;;;;;;;34.33;29.30;;;;;;;13.33;100.00;101465.34;5071602;28;20040;-54
2023/05/07 04:59:17;;;;;;;33.78;29.90;;;;;;;13.32;100.00;101460.13;5071445;28;20036;-54
2023/05/07 05:01:43;;;;;;;34.97;30.38;;;;;;;13.33;100.00;101453.41;5071438;28;20024;-54
2023/05/07 05:04:08;;;;;;;37.78;31.55;;;;;;;13.33;100.00;101461.72;5070056;28;20119;-52
2023/05/07 05:06:33;;;;;;;36.15;32.20;;;;;;;13.36;100.00;101469.47;5071404;28;20447;-54
2023/05/07 05:08:59;;;;;;;36.78;32.08;;;;;;;13.39;100.00;101471.66;5071443;28;20037;-51
2023/05/07 05:11:24;;;;;;;34.22;30.50;;;;;;;13.45;100.00;101470.41;5071196;28;20502;-49
2023/05/07 05:13:49;;;;;;;37.70;32.72;;;;;;;13.48;100.00;101471.75;5071191;28;20028;-52
2023/05/07 05:16:15;;;;;;;39.97;34.55;;;;;;;13.50;100.00;101469.47;5071101;28;20085;-52
2023/05/07 05:18:40;;;;;;;38.72;32.50;;;;;;;13.56;100.00;101471.84;5071094;28;20030;-51
2023/05/07 05:21:06;;;;;;;38.10;32.83;;;;;;;13.57;100.00;101473.50;5071129;28;20078;-51
2023/05/07 05:23:31;;;;;;;38.42;33.28;;;;;;;13.57;100.00;101470.72;5069703;28;20017;-53
2023/05/07 05:25:57;;;;;;;37.53;33.42;;;;;;;13.62;100.00;101480.06;5069699;28;20472;-53
2023/05/07 05:28:23;;;;;;;37.55;33.22;;;;;;;13.59;100.00;101481.50;5071166;28;20090;-53
2023/05/07 05:30:49;;;;;;;40.08;34.75;;;;;;;13.60;100.00;101472.03;5071089;28;20438;-51
2023/05/07 05:33:14;;;;;;;39.50;34.47;;;;;;;13.66;100.00;101479.13;5070754;28;20029;-54
2023/05/07 05:35:39;;;;;;;38.05;33.97;;;;;;;13.78;100.00;101491.66;5071226;28;20157;-52
2023/05/07 05:38:05;;;;;;;38.70;34.22;;;;;;;13.88;100.00;101491.44;5069698;28;20037;-53
2023/05/07 05:40:30;;;;;;;37.30;33.22;;;;;;;13.97;100.00;101505.44;5071013;28;20463;-52
2023/05/07 05:42:55;;;;;;;38.05;34.00;;;;;;;14.02;100.00;101495.03;5070871;28;20021;-51
2023/05/07 05:45:21;;;;;;;38.83;34.58;;;;;;;14.04;100.00;101505.81;5070532;28;20029;-51
2023/05/07 05:47:46;;;;;;;38.75;34.65;;;;;;;14.07;100.00;101499.66;5070556;28;20024;-52
2023/05/07 05:50:11;;;;;;;40.03;35.58;;;;;;;14.05;100.00;101504.69;5070606;28;20020;-53
2023/05/07 05:52:37;;;;;;;38.67;34.47;;;;;;;14.00;100.00;101504.78;5070858;28;20021;-53
2023/05/07 05:55:03;;;;;;;38.70;34.60;;;;;;;14.01;100.00;101495.31;5070670;28;20020;-53
2023/05/07 05:57:28;;;;;;;40.20;35.70;;;;;;;14.01;100.00;101500.88;5070690;28;20066;-54
2023/05/07 05:59:54;;;;;;;42.00;36.03;;;;;;;14.03;100.00;101495.84;5070805;28;20153;-52
2023/05/07 06:02:19;;;;;;;38.65;34.42;;;;;;;14.04;100.00;101494.69;5070653;28;20059;-54
2023/05/07 06:04:45;;;;;;;39.95;35.75;;;;;;;14.10;100.00;101499.00;5074523;28;20025;-54
2023/05/07 06:07:10;;;;;;;38.45;34.08;;;;;;;14.16;100.00;101494.13;5074695;28;20137;-52
2023/05/07 06:09:35;;;;;;;38.80;34.60;;;;;;;14.20;100.00;101497.94;5074742;28;20024;-54
2023/05/07 06:12:01;;;;;;;38.85;34.45;;;;;;;14.25;100.00;101497.00;5074653;28;20033;-53
2023/05/07 06:14:26;;;;;;;38.85;34.78;;;;;;;14.32;100.00;101500.97;5074758;28;20036;-53
2023/05/07 06:16:51;;;;;;;38.03;33.90;;;;;;;14.37;100.00;101496.44;5074632;28;20438;-53
2023/05/07 06:19:18;;;;;;;38.55;34.28;;;;;;;14.37;100.00;101504.78;5072807;28;20552;-50
2023/05/07 06:21:43;;;;;;;37.25;33.20;;;;;;;14.37;100.00;101505.59;5074438;28;20037;-54
2023/05/07 06:24:08;;;;;;;39.13;34.95;;;;;;;14.38;100.00;101507.25;5074206;28;20027;-54
2023/05/07 06:26:34;;;;;;;37.53;33.50;;;;;;;14.45;100.00;101509.59;5074275;28;20024;-53
2023/05/07 06:28:59;;;;;;;39.13;34.92;;;;;;;14.53;100.00;101508.81;5073929;28;20173;-53
2023/05/07 06:31:29;;;;;;;37.75;33.75;;;;;;;14.55;100.00;101508.53;5073849;28;20166;-54
2023/05/07 06:33:55;;;;;;;37.78;33.67;;;;;;;14.61;100.00;101505.28;5074171;28;20495;-53
2023/05/07 06:36:20;;;;;;;38.10;33.65;;;;;;;14.65;100.00;101511.03;5074064;28;20028;-54
2023/05/07 06:38:45;;;;;;;39.72;35.45;;;;;;;14.65;100.00;101506.28;5073828;28;20172;-54
2023/05/07 06:41:11;;;;;;;39.22;34.95;;;;;;;14.69;100.00;101509.28;5073794;28;20469;-53
2023/05/07 06:43:36;;;;;;;37.85;33.80;;;;;;;14.82;100.00;101508.41;5073930;28;20356;-54
2023/05/07 06:46:01;;;;;;;39.55;35.40;;;;;;;14.89;100.00;101513.50;5073706;28;20024;-51
2023/05/07 06:48:27;;;;;;;38.75;34.70;;;;;;;14.97;100.00;101518.28;5073745;28;20413;-53
2023/05/07 06:50:52;;;;;;;39.03;34.88;;;;;;;15.05;100.00;101511.13;5073633;28;20029;-53
2023/05/07 06:53:18;;;;;;;38.45;34.35;;;;;;;15.12;100.00;101507.88;5073639;28;20028;-53
2023/05/07 06:55:43;;;;;;;37.63;33.65;;;;;;;15.16;100.00;101510.84;5073503;28;20410;-52
2023/05/07 06:58:08;;;;;;;36.20;32.35;;;;;;;15.19;100.00;101515.78;5073478;28;20021;-53
2023/05/07 07:00:34;;;;;;;36.53;32.65;;;;;;;15.18;100.00;101511.34;5073515;28;20021;-53
2023/05/07 07:03:00;;;;;;;38.22;33.65;;;;;;;15.20;100.00;101517.44;5073499;28;20727;-54
2023/05/07 07:05:25;;;;;;;36.30;32.50;;;;;;;15.21;100.00;101519.06;5073644;28;20506;-53
2023/05/07 07:07:53;;;;;;;35.63;31.75;;;;;;;15.25;100.00;101520.91;5073552;28;20021;-53
2023/05/07 07:10:20;;;;;;;35.28;31.45;;;;;;;15.30;100.00;101522.72;5071879;28;20492;-53
2023/05/07 07:12:45;;;;;;;35.45;30.80;;;;;;;15.23;100.00;101523.19;5073529;28;20028;-53
2023/05/07 07:15:10;;;;;;;36.17;31.83;;;;;;;15.20;100.00;101526.59;5072342;28;20396;-53
2023/05/07 07:17:36;;;;;;;34.85;30.95;;;;;;;15.19;100.00;101522.16;5071989;28;20048;-54
2023/05/07 07:20:02;;;;;;;36.65;31.95;;;;;;;15.18;100.00;101520.53;5073385;28;20028;-53
2023/05/07 07:22:28;;;;;;;35.38;31.58;;;;;;;15.19;100.00;101518.56;5073626;28;20032;-53
2023/05/07 07:24:53;;;;;;;34.35;30.52;;;;;;;15.24;100.00;101523.97;5073419;28;20388;-55
2023/05/07 07:27:18;;;;;;;34.70;30.90;;;;;;;15.27;100.00;101515.00;5073224;28;20360;-54
2023/05/07 07:29:44;;;;;;;33.92;30.25;;;;;;;15.36;100.00;101521.41;5073062;28;20047;-53
2023/05/07 07:32:09;;;;;;;34.58;29.95;;;;;;;15.42;100.00;101514.53;5073350;28;20021;-53
2023/05/07 07:34:34;;;;;;;33.22;29.05;;;;;;;15.46;100.00;101522.28;5073284;28;20033;-53
2023/05/07 07:37:05;;;;;;;36.25;29.50;;;;;;;15.49;100.00;101527.22;5073307;28;20032;-56
2023/05/07 07:39:30;;;;;;;32.47;28.98;;;;;;;15.52;100.00;101529.34;5071789;28;20107;-50
2023/05/07 07:41:56;;;;;;;32.40;28.88;;;;;;;15.58;100.00;101534.44;5072921;28;20107;-51
2023/05/07 07:44:21;;;;;;;34.60;29.00;;;;;;;15.60;100.00;101534.94;5072835;28;20028;-53
2023/05/07 07:46:46;;;;;;;33.38;27.98;;;;;;;15.68;100.00;101538.06;5072744;28;20390;-52
2023/05/07 07:49:11;;;;;;;32.75;28.60;;;;;;;15.69;100.00;101537.75;5072659;28;20033;-53
2023/05/07 07:51:37;;;;;;;31.52;28.13;;;;;;;15.73;100.00;101541.53;5072613;28;20036;-52
2023/05/07 07:54:03;;;;;;;32.15;28.65;;;;;;;15.73;100.00;101540.69;5072593;28;20536;-52
2023/05/07 07:56:28;;;;;;;34.20;28.42;;;;;;;15.79;100.00;101542.22;5072674;28;20066;-54
2023/05/07 07:58:53;;;;;;;31.88;28.38;;;;;;;15.98;100.00;101547.53;5072591;28;20029;-54
2023/05/07 08:01:18;;;;;;;31.75;27.92;;;;;;;16.16;100.00;101548.38;5072585;28;20357;-53
2023/05/07 08:03:44;;;;;;;31.25;27.70;;;;;;;16.35;100.00;101542.44;5072638;28;20135;-54
2023/05/07 08:06:09;;;;;;;31.40;27.23;;;;;;;16.39;100.00;101545.41;5072609;28;20403;-53
2023/05/07 08:08:35;;;;;;;31.48;27.20;;;;;;;16.52;100.00;101543.63;5072685;28;20043;-51
2023/05/07 08:11:00;;;;;;;31.33;27.92;;;;;;;16.61;100.00;101561.19;5072503;28;20111;-53
2023/05/07 08:13:26;;;;;;;31.70;27.45;;;;;;;16.56;100.00;101550.16;5072421;28;20032;-55
2023/05/07 08:15:51;;;;;;;30.95;27.38;;;;;;;16.71;100.00;101546.03;5072395;28;20032;-54
2023/05/07 08:18:16;;;;;;;30.45;26.08;;;;;;;16.91;100.00;101546.50;5072352;28;20028;-54
2023/05/07 08:20:42;;;;;;;30.20;25.98;;;;;;;17.15;100.00;101548.75;5072439;28;20055;-53
2023/05/07 08:23:07;;;;;;;31.42;26.55;;;;;;;17.21;100.00;101557.78;5071062;28;20480;-53
2023/05/07 08:25:34;;;;;;;30.77;26.42;;;;;;;17.13;100.00;101557.50;5072100;28;20105;-53
2023/05/07 08:27:59;;;;;;;31.17;25.83;;;;;;;17.25;100.00;101548.41;5072188;28;20452;-54
2023/05/07 08:30:25;;;;;;;30.02;25.95;;;;;;;17.49;100.00;101557.34;5072471;28;20088;-49
2023/05/07 08:32:50;;;;;;;30.92;26.83;;;;;;;17.68;100.00;101559.69;5072197;28;20054;-52
2023/05/07 08:35:15;;;;;;;31.95;27.52;;;;;;;17.83;100.00;101558.31;5072128;28;20024;-52
2023/05/07 08:37:41;;;;;;;31.23;26.23;;;;;;;17.98;100.00;101568.97;5072189;28;20546;-53
2023/05/07 08:40:07;;;;;;;28.63;24.83;;;;;;;18.00;100.00;101557.41;5072153;28;20069;-52
2023/05/07 08:42:36;;;;;;;28.55;23.90;;;;;;;18.04;99.94;101558.38;5072269;28;20082;-51
2023/05/07 08:45:05;;;;;;;29.25;24.15;;;;;;;18.13;100.00;101555.50;5072175;28;20068;-54
2023/05/07 08:47:38;;;;;;;27.90;24.88;;;;;;;18.24;100.00;101556.75;5071891;28;20436;-54
2023/05/07 08:50:05;;;;;;;29.27;24.80;;;;;;;18.43;100.00;101558.25;5071990;28;20036;-52
2023/05/07 08:52:31;;;;;;;28.35;24.75;;;;;;;18.60;99.57;101566.47;5071994;28;20029;-53
2023/05/07 08:54:56;;;;;;;27.42;24.08;;;;;;;18.68;98.58;101559.16;5072052;28;20108;-54
2023/05/07 08:57:23;;;;;;;28.83;24.40;;;;;;;18.72;97.11;101571.31;5071665;28;20052;-51
2023/05/07 08:59:48;;;;;;;28.45;23.88;;;;;;;18.67;97.52;101566.75;5070248;28;20036;-53
2023/05/07 09:02:14;;;;;;;27.88;24.15;;;;;;;18.63;97.03;101571.41;5071846;28;20032;-52
2023/05/07 09:04:40;;;;;;;28.83;24.23;;;;;;;18.58;98.79;101568.81;5071772;28;20035;-54
2023/05/07 09:07:05;;;;;;;28.05;23.42;;;;;;;18.73;98.85;101574.94;5071582;28;20099;-54
2023/05/07 09:09:33;;;;;;;28.17;23.83;;;;;;;18.66;94.59;101575.50;5071685;28;20082;-51
2023/05/07 09:12:00;;;;;;;29.80;23.95;;;;;;;18.61;97.56;101570.94;5071313;28;20032;-53
2023/05/07 09:14:25;;;;;;;28.63;24.00;;;;;;;18.63;97.41;101574.22;5071335;28;20052;-53
2023/05/07 09:16:54;;;;;;;29.55;23.83;;;;;;;18.83;97.47;101574.53;5071331;28;20067;-53
2023/05/07 09:19:24;;;;;;;27.35;23.33;;;;;;;19.00;96.77;101567.94;5071437;28;20107;-53
2023/05/07 09:21:49;;;;;;;27.25;23.10;;;;;;;19.07;95.37;101570.16;5071250;28;20090;-52
2023/05/07 09:24:15;;;;;;;27.08;22.85;;;;;;;19.08;93.88;101572.63;5069833;28;20435;-54
2023/05/07 09:26:41;;;;;;;26.30;22.65;;;;;;;19.03;91.86;101575.66;5071096;28;20077;-54
2023/05/07 09:29:07;;;;;;;27.88;22.58;;;;;;;18.94;93.17;101572.94;5071082;28;20085;-53
2023/05/07 09:31:37;;;;;;;26.88;23.05;;;;;;;18.98;92.68;101571.09;5071153;28;20433;-53
2023/05/07 09:34:04;;;;;;;26.83;22.98;;;;;;;18.99;92.60;101566.28;5071113;28;20218;-53
2023/05/07 09:36:31;;;;;;;27.45;23.83;;;;;;;18.67;92.36;101572.34;5071024;28;20032;-52
2023/05/07 09:38:59;;;;;;;27.98;23.88;;;;;;;18.67;93.64;101566.75;5070468;28;20029;-54
2023/05/07 09:41:24;;;;;;;28.02;22.45;;;;;;;18.85;94.45;101569.38;5071200;28;20131;-53
2023/05/07 09:43:54;;;;;;;25.88;21.83;;;;;;;18.98;92.66;101573.09;5071141;28;20036;-53
2023/05/07 09:46:30;;;;;;;28.02;22.38;;;;;;;19.11;94.48;101566.31;5070905;28;20543;-52
2023/05/07 09:48:58;;;;;;;26.00;22.52;;;;;;;19.27;92.21;101574.09;5071020;28;20111;-53
2023/05/07 09:51:36;;;;;;;27.25;22.67;;;;;;;19.26;91.64;101569.63;5069614;28;20021;-53
2023/05/07 09:54:03;;;;;;;26.17;22.02;;;;;;;19.39;92.62;101564.84;5070973;28;20056;-53
2023/05/07 09:56:30;;;;;;;27.05;22.90;;;;;;;19.47;91.05;101570.34;5071151;28;20028;-54
2023/05/07 09:59:00;;;;;;;27.33;22.55;;;;;;;19.54;90.57;101572.56;5071131;28;20028;-52
2023/05/07 10:01:26;;;;;;;24.77;21.05;;;;;;;19.53;90.34;101570.13;5070996;28;20021;-53
2023/05/07 10:03:52;;;;;;;29.38;23.33;;;;;;;19.54;91.07;101566.97;5070863;28;20033;-53
2023/05/07 10:06:19;;;;;;;26.65;22.52;;;;;;;19.67;90.43;101564.16;5070907;28;20089;-53
2023/05/07 10:08:45;;;;;;;26.10;21.75;;;;;;;19.72;90.46;101575.13;5070985;28;20027;-53
2023/05/07 10:11:11;;;;;;;26.33;21.77;;;;;;;19.64;88.19;101566.50;5070729;28;20058;-53
2023/05/07 10:13:37;;;;;;;24.48;20.05;;;;;;;19.69;86.46;101576.66;5069415;28;20044;-52
2023/05/07 10:16:05;;;;;;;27.75;22.05;;;;;;;19.76;87.72;101576.09;5070860;28;20028;-52
2023/05/07 10:18:32;;;;;;;26.25;21.65;;;;;;;19.87;90.33;101566.06;5070696;28;20051;-53
2023/05/07 10:21:18;;;;;;;26.70;21.75;;;;;;;19.95;89.28;101567.06;5071129;28;20044;-54
2023/05/07 10:23:48;;;;;;;25.95;21.10;;;;;;;20.08;87.42;101559.44;5070778;28;20017;-53
2023/05/07 10:26:14;;;;;;;24.58;20.48;;;;;;;20.30;86.66;101563.75;5071068;28;20029;-53
2023/05/07 10:28:44;;;;;;;26.38;21.08;;;;;;;20.52;86.64;101568.00;5069210;28;20032;-54
2023/05/07 10:31:43;;;;;;;25.48;20.55;;;;;;;20.76;86.96;101557.03;5071113;28;20035;-53
2023/05/07 10:34:16;;;;;;;24.75;20.75;;;;;;;20.86;85.84;101559.31;5070819;28;20052;-53
2023/05/07 10:36:42;;;;;;;26.00;20.50;;;;;;;21.05;83.57;101561.44;5070712;28;20093;-54
2023/05/07 10:39:08;;;;;;;23.75;18.85;;;;;;;21.10;79.89;101569.63;5070189;28;20024;-53
2023/05/07 10:41:33;;;;;;;26.48;20.10;;;;;;;21.13;81.66;101565.25;5069563;28;20881;-53
2023/05/07 10:44:01;;;;;;;24.65;19.00;;;;;;;21.14;79.46;101566.91;5069434;28;20048;-53
2023/05/07 10:46:26;;;;;;;24.17;17.98;;;;;;;21.21;79.10;101571.91;5069372;28;20036;-52
2023/05/07 10:49:01;;;;;;;23.73;18.83;;;;;;;21.14;78.62;101570.50;5069268;28;20475;-53
2023/05/07 10:51:27;;;;;;;25.35;18.35;;;;;;;21.13;80.30;101568.88;5072416;28;20033;-53
2023/05/07 10:54:11;;;;;;;24.60;19.17;;;;;;;21.02;79.95;101571.41;5071344;28;20449;-54
2023/05/07 10:56:37;;;;;;;25.45;18.92;;;;;;;21.04;78.84;101565.41;5072487;28;20361;-49